sensor_id;sensor_type;location;lat;lon;timestamp;pressure;altitude;pressure_sealevel;temperature;humidity
6565;BME280;3316;44.118;27.258;2023-02-18T00:01:41;101547.31;;;8.46;90.70
6565;BME280;3316;44.118;27.258;2023-02-18T00:04:06;101536.78;;;8.45;90.01
6565;BME280;3316;44.118;27.258;2023-02-18T00:06:34;101536.84;;;8.49;89.38
6565;BME280;3316;44.118;27.258;2023-02-18T00:09:00;101489.41;;;8.31;89.20
6565;BME280;3316;44.118;27.258;2023-02-18T00:11:27;101514.97;;;8.47;89.39
6565;BME280;3316;44.118;27.258;2023-02-18T00:13:55;101522.09;;;8.56;89.57
6565;BME280;3316;44.118;27.258;2023-02-18T00:16:23;101511.59;;;8.56;89.01
6565;BME280;3316;44.118;27.258;2023-02-18T00:18:49;101520.38;;;8.58;88.91
6565;BME280;3316;44.118;27.258;2023-02-18T00:21:15;101524.66;;;8.53;89.61
6565;BME280;3316;44.118;27.258;2023-02-18T00:23:40;101515.81;;;8.45;89.98
6565;BME280;3316;44.118;27.258;2023-02-18T00:26:11;101506.94;;;8.35;90.68
6565;BME280;3316;44.118;27.258;2023-02-18T00:28:38;101501.59;;;8.26;92.08
6565;BME280;3316;44.118;27.258;2023-02-18T00:31:09;101502.38;;;8.21;92.62
6565;BME280;3316;44.118;27.258;2023-02-18T00:33:34;101493.56;;;8.16;92.91
6565;BME280;3316;44.118;27.258;2023-02-18T00:36:05;101475.00;;;7.99;93.80
6565;BME280;3316;44.118;27.258;2023-02-18T00:38:32;101491.75;;;8.11;94.45
6565;BME280;3316;44.118;27.258;2023-02-18T00:40:58;101489.03;;;8.05;95.06
6565;BME280;3316;44.118;27.258;2023-02-18T00:43:23;101491.72;;;8.08;95.10
6565;BME280;3316;44.118;27.258;2023-02-18T00:45:49;101502.19;;;8.07;95.75
6565;BME280;3316;44.118;27.258;2023-02-18T00:48:15;101459.19;;;7.91;96.47
6565;BME280;3316;44.118;27.258;2023-02-18T00:50:40;101497.69;;;7.98;96.68
6565;BME280;3316;44.118;27.258;2023-02-18T00:53:06;101473.28;;;8.01;96.11
6565;BME280;3316;44.118;27.258;2023-02-18T00:55:31;101473.28;;;8.02;96.60
6565;BME280;3316;44.118;27.258;2023-02-18T00:57:57;101487.19;;;7.97;97.16
6565;BME280;3316;44.118;27.258;2023-02-18T01:00:22;101482.06;;;8.04;97.19
6565;BME280;3316;44.118;27.258;2023-02-18T01:02:50;101458.28;;;7.89;97.72
6565;BME280;3316;44.118;27.258;2023-02-18T01:05:18;101463.72;;;8.07;96.99
6565;BME280;3316;44.118;27.258;2023-02-18T01:07:44;101456.91;;;8.19;96.39
6565;BME280;3316;44.118;27.258;2023-02-18T01:10:10;101437.50;;;8.06;96.87
6565;BME280;3316;44.118;27.258;2023-02-18T01:12:36;101433.31;;;8.20;95.83
6565;BME280;3316;44.118;27.258;2023-02-18T01:15:03;101441.47;;;8.43;93.04
6565;BME280;3316;44.118;27.258;2023-02-18T01:17:29;101433.81;;;8.58;90.63
6565;BME280;3316;44.118;27.258;2023-02-18T01:19:54;101423.38;;;8.67;89.90
6565;BME280;3316;44.118;27.258;2023-02-18T01:22:20;101389.28;;;8.64;86.98
6565;BME280;3316;44.118;27.258;2023-02-18T01:24:45;101452.50;;;8.94;86.80
6565;BME280;3316;44.118;27.258;2023-02-18T01:27:11;101443.63;;;8.78;88.95
6565;BME280;3316;44.118;27.258;2023-02-18T01:29:36;101437.41;;;8.69;90.39
6565;BME280;3316;44.118;27.258;2023-02-18T01:32:01;101433.75;;;8.56;91.30
6565;BME280;3316;44.118;27.258;2023-02-18T01:34:27;101445.97;;;8.54;92.17
6565;BME280;3316;44.118;27.258;2023-02-18T01:36:52;101424.81;;;8.38;92.59
6565;BME280;3316;44.118;27.258;2023-02-18T01:39:18;101437.19;;;8.48;92.97
6565;BME280;3316;44.118;27.258;2023-02-18T01:41:43;101439.06;;;8.61;92.01
6565;BME280;3316;44.118;27.258;2023-02-18T01:46:42;101444.38;;;8.67;91.63
6565;BME280;3316;44.118;27.258;2023-02-18T01:49:09;101439.13;;;8.67;91.59
6565;BME280;3316;44.118;27.258;2023-02-18T01:51:49;101453.13;;;8.66;92.49
6565;BME280;3316;44.118;27.258;2023-02-18T01:56:55;101450.38;;;8.55;93.74
6565;BME280;3316;44.118;27.258;2023-02-18T01:59:27;101424.84;;;8.41;94.64
6565;BME280;3316;44.118;27.258;2023-02-18T02:01:55;101443.25;;;8.42;95.21
6565;BME280;3316;44.118;27.258;2023-02-18T02:04:20;101422.22;;;8.38;95.27
6565;BME280;3316;44.118;27.258;2023-02-18T02:06:46;101435.41;;;8.45;94.89
6565;BME280;3316;44.118;27.258;2023-02-18T02:09:13;101428.41;;;8.44;94.97
6565;BME280;3316;44.118;27.258;2023-02-18T02:17:10;101396.44;;;8.81;91.95
6565;BME280;3316;44.118;27.258;2023-02-18T02:20:11;101412.31;;;8.95;90.71
6565;BME280;3316;44.118;27.258;2023-02-18T02:30:52;101366.19;;;9.30;87.40
6565;BME280;3316;44.118;27.258;2023-02-18T02:36:28;101399.22;;;9.01;90.69
6565;BME280;3316;44.118;27.258;2023-02-18T02:39:16;101375.34;;;8.74;92.81
6565;BME280;3316;44.118;27.258;2023-02-18T02:46:51;101382.19;;;8.57;96.51
6565;BME280;3316;44.118;27.258;2023-02-18T02:49:47;101383.06;;;8.56;96.83
6565;BME280;3316;44.118;27.258;2023-02-18T02:52:23;101385.63;;;8.51;97.69
6565;BME280;3316;44.118;27.258;2023-02-18T02:54:50;101379.50;;;8.49;98.13
6565;BME280;3316;44.118;27.258;2023-02-18T02:59:44;101384.81;;;8.55;97.46
6565;BME280;3316;44.118;27.258;2023-02-18T03:05:20;101396.25;;;8.66;97.93
6565;BME280;3316;44.118;27.258;2023-02-18T03:14:09;101405.22;;;8.86;96.79
6565;BME280;3316;44.118;27.258;2023-02-18T03:21:44;101409.69;;;8.95;97.15
6565;BME280;3316;44.118;27.258;2023-02-18T03:24:37;101400.06;;;8.98;96.25
6565;BME280;3316;44.118;27.258;2023-02-18T03:27:08;101385.22;;;9.02;95.75
6565;BME280;3316;44.118;27.258;2023-02-18T03:29:37;101391.38;;;9.07;95.95
6565;BME280;3316;44.118;27.258;2023-02-18T03:32:06;101394.03;;;9.09;96.30
6565;BME280;3316;44.118;27.258;2023-02-18T03:34:36;101373.94;;;9.12;96.04
6565;BME280;3316;44.118;27.258;2023-02-18T03:37:03;101355.56;;;9.11;94.75
6565;BME280;3316;44.118;27.258;2023-02-18T03:39:32;101367.84;;;9.21;94.71
6565;BME280;3316;44.118;27.258;2023-02-18T03:41:58;101359.16;;;9.29;93.12
6565;BME280;3316;44.118;27.258;2023-02-18T03:44:24;101354.81;;;9.34;91.29
6565;BME280;3316;44.118;27.258;2023-02-18T03:46:50;101354.81;;;9.34;90.74
6565;BME280;3316;44.118;27.258;2023-02-18T03:49:16;101337.38;;;9.45;88.57
6565;BME280;3316;44.118;27.258;2023-02-18T03:51:42;101323.31;;;9.40;88.09
6565;BME280;3316;44.118;27.258;2023-02-18T03:54:09;101313.72;;;9.45;86.89
6565;BME280;3316;44.118;27.258;2023-02-18T03:56:35;101319.94;;;9.59;85.76
6565;BME280;3316;44.118;27.258;2023-02-18T03:59:01;101314.66;;;9.55;85.34
6565;BME280;3316;44.118;27.258;2023-02-18T04:01:27;101319.09;;;9.63;84.35
6565;BME280;3316;44.118;27.258;2023-02-18T04:03:52;101314.69;;;9.59;84.23
6565;BME280;3316;44.118;27.258;2023-02-18T04:06:20;101320.81;;;9.64;83.68
6565;BME280;3316;44.118;27.258;2023-02-18T04:08:46;101325.22;;;9.68;83.61
6565;BME280;3316;44.118;27.258;2023-02-18T04:11:12;101327.00;;;9.71;83.16
6565;BME280;3316;44.118;27.258;2023-02-18T04:13:38;101327.84;;;9.65;81.75
6565;BME280;3316;44.118;27.258;2023-02-18T04:16:04;101328.72;;;9.61;82.36
6565;BME280;3316;44.118;27.258;2023-02-18T04:18:29;101341.00;;;9.68;82.55
6565;BME280;3316;44.118;27.258;2023-02-18T04:20:54;101317.28;;;9.55;82.06
6565;BME280;3316;44.118;27.258;2023-02-18T04:23:20;101334.00;;;9.69;81.49
6565;BME280;3316;44.118;27.258;2023-02-18T04:25:45;101318.19;;;9.61;82.05
6565;BME280;3316;44.118;27.258;2023-02-18T04:28:13;101321.72;;;9.66;81.79
6565;BME280;3316;44.118;27.258;2023-02-18T04:30:39;101305.06;;;9.61;81.09
6565;BME280;3316;44.118;27.258;2023-02-18T04:33:05;101309.47;;;9.70;80.56
6565;BME280;3316;44.118;27.258;2023-02-18T04:35:30;101311.19;;;9.68;80.23
6565;BME280;3316;44.118;27.258;2023-02-18T04:37:56;101298.94;;;9.71;78.78
6565;BME280;3316;44.118;27.258;2023-02-18T04:40:21;101316.47;;;9.75;78.80
6565;BME280;3316;44.118;27.258;2023-02-18T04:42:49;101312.97;;;9.73;78.10
6565;BME280;3316;44.118;27.258;2023-02-18T04:45:15;101306.81;;;9.64;78.77
6565;BME280;3316;44.118;27.258;2023-02-18T04:47:40;101318.25;;;9.79;78.34
6565;BME280;3316;44.118;27.258;2023-02-18T04:50:06;101302.47;;;9.73;78.59
6565;BME280;3316;44.118;27.258;2023-02-18T04:52:32;101294.53;;;9.67;78.91
6565;BME280;3316;44.118;27.258;2023-02-18T04:54:57;101298.09;;;9.81;78.44
6565;BME280;3316;44.118;27.258;2023-02-18T04:57:22;101294.63;;;9.81;78.21
6565;BME280;3316;44.118;27.258;2023-02-18T04:59:48;101277.03;;;9.69;77.98
6565;BME280;3316;44.118;27.258;2023-02-18T05:02:13;101284.13;;;9.82;78.10
6565;BME280;3316;44.118;27.258;2023-02-18T05:04:39;101287.59;;;9.81;77.79
6565;BME280;3316;44.118;27.258;2023-02-18T05:07:04;101270.94;;;9.76;77.27
6565;BME280;3316;44.118;27.258;2023-02-18T05:09:30;101229.72;;;9.51;77.77
6565;BME280;3316;44.118;27.258;2023-02-18T05:11:55;101302.50;;;9.85;77.85
6565;BME280;3316;44.118;27.258;2023-02-18T05:14:20;101289.38;;;9.90;79.82
6565;BME280;3316;44.118;27.258;2023-02-18T05:16:46;101303.38;;;9.89;80.56
6565;BME280;3316;44.118;27.258;2023-02-18T05:19:15;101292.88;;;9.89;82.24
6565;BME280;3316;44.118;27.258;2023-02-18T05:21:41;101292.00;;;9.87;83.13
6565;BME280;3316;44.118;27.258;2023-02-18T05:24:06;101286.72;;;9.76;85.61
6565;BME280;3316;44.118;27.258;2023-02-18T05:26:32;101278.84;;;9.78;85.86
6565;BME280;3316;44.118;27.258;2023-02-18T05:28:58;101300.75;;;9.87;84.86
6565;BME280;3316;44.118;27.258;2023-02-18T05:31:23;101286.72;;;9.79;85.63
6565;BME280;3316;44.118;27.258;2023-02-18T05:33:49;101298.13;;;9.86;87.25
6565;BME280;3316;44.118;27.258;2023-02-18T05:36:14;101307.75;;;9.87;85.36
6565;BME280;3316;44.118;27.258;2023-02-18T05:38:39;101302.47;;;9.79;86.74
6565;BME280;3316;44.118;27.258;2023-02-18T05:41:05;101314.75;;;9.85;87.50
6565;BME280;3316;44.118;27.258;2023-02-18T05:43:31;101297.25;;;9.82;85.92
6565;BME280;3316;44.118;27.258;2023-02-18T05:46:16;101280.56;;;9.77;86.19
6565;BME280;3316;44.118;27.258;2023-02-18T05:48:41;101306.00;;;9.81;89.93
6565;BME280;3316;44.118;27.258;2023-02-18T05:51:07;101292.88;;;9.84;87.42
6565;BME280;3316;44.118;27.258;2023-02-18T05:53:32;101289.34;;;9.79;87.07
6565;BME280;3316;44.118;27.258;2023-02-18T05:55:58;101300.75;;;9.84;87.30
6565;BME280;3316;44.118;27.258;2023-02-18T05:58:23;101291.97;;;9.79;88.12
6565;BME280;3316;44.118;27.258;2023-02-18T06:00:48;101285.88;;;9.89;87.92
6565;BME280;3316;44.118;27.258;2023-02-18T06:03:14;101292.00;;;9.92;85.86
6565;BME280;3316;44.118;27.258;2023-02-18T06:05:39;101254.28;;;9.71;86.41
6565;BME280;3316;44.118;27.258;2023-02-18T06:08:05;101300.81;;;9.97;86.74
6565;BME280;3316;44.118;27.258;2023-02-18T06:10:30;101288.53;;;9.93;86.42
6565;BME280;3316;44.118;27.258;2023-02-18T06:12:55;101302.53;;;10.01;85.46
6565;BME280;3316;44.118;27.258;2023-02-18T06:15:21;101289.41;;;9.95;85.47
6565;BME280;3316;44.118;27.258;2023-02-18T06:17:46;101264.84;;;9.88;86.78
6565;BME280;3316;44.118;27.258;2023-02-18T06:20:12;101300.81;;;10.09;86.32
6565;BME280;3316;44.118;27.258;2023-02-18T06:22:37;101284.16;;;10.07;85.28
6565;BME280;3316;44.118;27.258;2023-02-18T06:25:03;101271.06;;;10.10;82.56
6565;BME280;3316;44.118;27.258;2023-02-18T06:27:28;101276.34;;;10.17;83.59
6565;BME280;3316;44.118;27.258;2023-02-18T06:29:54;101264.91;;;10.18;81.68
6565;BME280;3316;44.118;27.258;2023-02-18T06:32:19;101264.94;;;10.30;81.06
6565;BME280;3316;44.118;27.258;2023-02-18T06:34:44;101258.81;;;10.42;79.52
6565;BME280;3316;44.118;27.258;2023-02-18T06:37:10;101245.66;;;10.49;77.95
6565;BME280;3316;44.118;27.258;2023-02-18T06:39:35;101219.34;;;10.48;77.76
6565;BME280;3316;44.118;27.258;2023-02-18T06:42:01;101216.72;;;10.52;78.86
6565;BME280;3316;44.118;27.258;2023-02-18T06:44:26;101248.28;;;10.66;78.83
6565;BME280;3316;44.118;27.258;2023-02-18T06:46:51;101236.03;;;10.59;76.86
6565;BME280;3316;44.118;27.258;2023-02-18T06:49:17;101253.56;;;10.70;78.20
6565;BME280;3316;44.118;27.258;2023-02-18T06:51:42;101273.72;;;10.74;79.20
6565;BME280;3316;44.118;27.258;2023-02-18T06:54:08;101270.19;;;10.77;79.32
6565;BME280;3316;44.118;27.258;2023-02-18T06:56:33;101280.75;;;10.80;78.81
6565;BME280;3316;44.118;27.258;2023-02-18T06:58:59;101265.81;;;10.84;77.52
6565;BME280;3316;44.118;27.258;2023-02-18T07:01:24;101271.94;;;10.95;76.84
6565;BME280;3316;44.118;27.258;2023-02-18T07:03:50;101271.03;;;11.15;74.10
6565;BME280;3316;44.118;27.258;2023-02-18T07:06:15;101266.63;;;11.17;72.62
6565;BME280;3316;44.118;27.258;2023-02-18T07:08:40;101290.28;;;11.38;72.68
6565;BME280;3316;44.118;27.258;2023-02-18T07:11:06;101311.28;;;11.59;71.35
6565;BME280;3316;44.118;27.258;2023-02-18T07:13:31;101291.00;;;11.81;69.96
6565;BME280;3316;44.118;27.258;2023-02-18T07:15:57;101282.09;;;12.00;69.46
6565;BME280;3316;44.118;27.258;2023-02-18T07:18:22;101288.13;;;12.23;66.49
6565;BME280;3316;44.118;27.258;2023-02-18T07:20:48;101282.78;;;12.32;65.89
6565;BME280;3316;44.118;27.258;2023-02-18T07:23:13;101283.63;;;12.36;65.61
6565;BME280;3316;44.118;27.258;2023-02-18T07:25:38;101279.22;;;12.38;65.99
6565;BME280;3316;44.118;27.258;2023-02-18T07:28:05;101272.31;;;12.22;65.77
6565;BME280;3316;44.118;27.258;2023-02-18T07:30:30;101266.25;;;12.02;64.38
6565;BME280;3316;44.118;27.258;2023-02-18T07:32:55;101211.09;;;11.62;65.58
6565;BME280;3316;44.118;27.258;2023-02-18T07:35:21;101274.25;;;11.91;65.50
6565;BME280;3316;44.118;27.258;2023-02-18T07:37:47;101267.31;;;11.74;66.63
6565;BME280;3316;44.118;27.258;2023-02-18T07:40:16;101273.50;;;11.70;65.71
6565;BME280;3316;44.118;27.258;2023-02-18T07:42:42;101267.34;;;11.68;65.89
6565;BME280;3316;44.118;27.258;2023-02-18T07:45:08;101265.63;;;11.56;66.03
6565;BME280;3316;44.118;27.258;2023-02-18T07:47:33;101268.28;;;11.45;66.79
6565;BME280;3316;44.118;27.258;2023-02-18T07:49:59;101270.00;;;11.55;67.09
6565;BME280;3316;44.118;27.258;2023-02-18T07:52:24;101269.13;;;11.53;68.13
6565;BME280;3316;44.118;27.258;2023-02-18T07:54:50;101270.03;;;11.52;68.59
6565;BME280;3316;44.118;27.258;2023-02-18T07:57:15;101274.44;;;11.50;66.82
6565;BME280;3316;44.118;27.258;2023-02-18T07:59:41;101272.66;;;11.48;68.43
6565;BME280;3316;44.118;27.258;2023-02-18T08:02:13;101243.78;;;11.12;70.95
6565;BME280;3316;44.118;27.258;2023-02-18T08:04:40;101275.41;;;11.13;71.63
6565;BME280;3316;44.118;27.258;2023-02-18T08:07:10;101276.31;;;11.02;73.12
6565;BME280;3316;44.118;27.258;2023-02-18T08:09:36;101240.38;;;10.84;75.36
6565;BME280;3316;44.118;27.258;2023-02-18T08:12:01;101265.84;;;10.70;76.54
6565;BME280;3316;44.118;27.258;2023-02-18T08:14:27;101241.25;;;10.69;75.26
6565;BME280;3316;44.118;27.258;2023-02-18T08:16:52;101243.88;;;10.86;73.18
6565;BME280;3316;44.118;27.258;2023-02-18T08:19:17;101216.69;;;10.78;73.37
6565;BME280;3316;44.118;27.258;2023-02-18T08:21:43;101227.19;;;10.98;73.15
6565;BME280;3316;44.118;27.258;2023-02-18T08:24:08;101222.75;;;11.04;72.07
6565;BME280;3316;44.118;27.258;2023-02-18T08:26:34;101228.88;;;11.18;71.59
6565;BME280;3316;44.118;27.258;2023-02-18T08:28:59;101232.34;;;11.26;71.72
6565;BME280;3316;44.118;27.258;2023-02-18T08:31:27;101234.09;;;11.24;71.53
6565;BME280;3316;44.118;27.258;2023-02-18T08:33:54;101234.06;;;11.33;71.33
6565;BME280;3316;44.118;27.258;2023-02-18T08:36:20;101240.22;;;11.37;71.88
6565;BME280;3316;44.118;27.258;2023-02-18T08:38:46;101237.59;;;11.32;72.13
6565;BME280;3316;44.118;27.258;2023-02-18T08:41:12;101218.31;;;11.20;73.57
6565;BME280;3316;44.118;27.258;2023-02-18T08:43:39;101232.34;;;11.26;73.08
6565;BME280;3316;44.118;27.258;2023-02-18T08:46:04;101222.69;;;11.24;73.55
6565;BME280;3316;44.118;27.258;2023-02-18T08:48:30;101227.06;;;11.31;73.88
6565;BME280;3316;44.118;27.258;2023-02-18T08:50:56;101222.63;;;11.40;72.90
6565;BME280;3316;44.118;27.258;2023-02-18T08:53:22;101231.38;;;11.50;72.15
6565;BME280;3316;44.118;27.258;2023-02-18T08:55:47;101214.69;;;11.43;72.52
6565;BME280;3316;44.118;27.258;2023-02-18T08:58:13;101213.84;;;11.40;73.06
6565;BME280;3316;44.118;27.258;2023-02-18T09:00:39;101184.88;;;11.34;71.98
6565;BME280;3316;44.118;27.258;2023-02-18T09:03:05;101205.91;;;11.43;72.34
6565;BME280;3316;44.118;27.258;2023-02-18T09:05:31;101214.66;;;11.51;71.99
6565;BME280;3316;44.118;27.258;2023-02-18T09:07:56;101212.03;;;11.52;72.28
6565;BME280;3316;44.118;27.258;2023-02-18T09:10:21;101200.59;;;11.58;72.38
6565;BME280;3316;44.118;27.258;2023-02-18T09:12:47;101204.03;;;11.75;70.35
6565;BME280;3316;44.118;27.258;2023-02-18T09:15:16;101180.34;;;11.63;70.63
6565;BME280;3316;44.118;27.258;2023-02-18T09:17:41;101195.25;;;11.75;70.62
6565;BME280;3316;44.118;27.258;2023-02-18T09:20:07;101174.19;;;11.69;70.45
6565;BME280;3316;44.118;27.258;2023-02-18T09:22:33;101181.19;;;11.73;70.07
6565;BME280;3316;44.118;27.258;2023-02-18T09:24:58;101190.81;;;11.78;69.62
6565;BME280;3316;44.118;27.258;2023-02-18T09:27:24;101197.91;;;11.73;70.27
6565;BME280;3316;44.118;27.258;2023-02-18T09:29:49;101200.47;;;11.84;70.33
6565;BME280;3316;44.118;27.258;2023-02-18T09:32:15;101205.72;;;11.90;70.07
6565;BME280;3316;44.118;27.258;2023-02-18T09:34:42;101203.97;;;11.86;69.74
6565;BME280;3316;44.118;27.258;2023-02-18T09:37:08;101209.19;;;11.95;69.99
6565;BME280;3316;44.118;27.258;2023-02-18T09:39:33;101206.59;;;11.87;70.58
6565;BME280;3316;44.118;27.258;2023-02-18T09:42:02;101223.28;;;11.89;69.98
6565;BME280;3316;44.118;27.258;2023-02-18T09:44:32;101214.53;;;11.86;69.34
6565;BME280;3316;44.118;27.258;2023-02-18T09:47:04;101220.56;;;12.00;69.54
6565;BME280;3316;44.118;27.258;2023-02-18T09:49:34;101208.25;;;12.02;69.97
6565;BME280;3316;44.118;27.258;2023-02-18T09:52:11;101209.97;;;12.09;69.42
6565;BME280;3316;44.118;27.258;2023-02-18T09:54:38;101208.19;;;12.12;69.50
6565;BME280;3316;44.118;27.258;2023-02-18T09:57:05;101214.28;;;12.19;69.54
6565;BME280;3316;44.118;27.258;2023-02-18T09:59:35;101178.31;;;12.07;69.92
6565;BME280;3316;44.118;27.258;2023-02-18T10:02:00;101214.09;;;12.41;68.66
6565;BME280;3316;44.118;27.258;2023-02-18T10:04:36;101208.88;;;12.31;69.56
6565;BME280;3316;44.118;27.258;2023-02-18T10:07:04;101215.94;;;12.32;69.67
6565;BME280;3316;44.118;27.258;2023-02-18T10:09:35;101216.81;;;12.34;70.06
6565;BME280;3316;44.118;27.258;2023-02-18T10:12:12;101218.50;;;12.39;70.08
6565;BME280;3316;44.118;27.258;2023-02-18T10:14:38;101202.69;;;12.35;70.12
6565;BME280;3316;44.118;27.258;2023-02-18T10:17:04;101201.84;;;12.33;71.17
6565;BME280;3316;44.118;27.258;2023-02-18T10:19:35;101191.34;;;12.27;70.91
6565;BME280;3316;44.118;27.258;2023-02-18T10:22:04;101197.41;;;12.38;70.66
6565;BME280;3316;44.118;27.258;2023-02-18T10:24:33;101155.44;;;12.08;71.32
6565;BME280;3316;44.118;27.258;2023-02-18T10:27:02;101186.91;;;12.29;72.00
6565;BME280;3316;44.118;27.258;2023-02-18T10:29:28;101187.75;;;12.38;70.57
6565;BME280;3316;44.118;27.258;2023-02-18T10:37:27;101177.16;;;12.40;71.67
6565;BME280;3316;44.118;27.258;2023-02-18T10:40:20;101167.53;;;12.34;71.54
6565;BME280;3316;44.118;27.258;2023-02-18T10:48:53;101158.63;;;12.47;71.42
6565;BME280;3316;44.118;27.258;2023-02-18T10:51:23;101166.69;;;12.32;72.04
6565;BME280;3316;44.118;27.258;2023-02-18T10:53:52;101149.84;;;12.42;71.33
6565;BME280;3316;44.118;27.258;2023-02-18T10:59:22;101150.75;;;12.41;71.77
6565;BME280;3316;44.118;27.258;2023-02-18T11:01:57;101134.94;;;12.37;71.19
6565;BME280;3316;44.118;27.258;2023-02-18T11:04:43;101113.97;;;12.26;71.24
6565;BME280;3316;44.118;27.258;2023-02-18T11:07:15;101141.78;;;12.56;71.06
6565;BME280;3316;44.118;27.258;2023-02-18T11:09:54;101131.22;;;12.56;71.08
6565;BME280;3316;44.118;27.258;2023-02-18T11:12:26;101139.22;;;12.48;70.98
6565;BME280;3316;44.118;27.258;2023-02-18T11:17:32;101136.66;;;12.44;72.52
6565;BME280;3316;44.118;27.258;2023-02-18T11:20:00;101129.59;;;12.47;72.64
6565;BME280;3316;44.118;27.258;2023-02-18T11:22:32;101133.13;;;12.45;72.80
6565;BME280;3316;44.118;27.258;2023-02-18T11:25:02;101126.06;;;12.50;72.53
6565;BME280;3316;44.118;27.258;2023-02-18T11:27:41;101120.75;;;12.51;73.29
6565;BME280;3316;44.118;27.258;2023-02-18T11:32:53;101125.13;;;12.52;73.85
6565;BME280;3316;44.118;27.258;2023-02-18T11:35:26;101130.25;;;12.68;72.95
6565;BME280;3316;44.118;27.258;2023-02-18T11:37:53;101118.75;;;12.72;73.31
6565;BME280;3316;44.118;27.258;2023-02-18T11:40:29;101114.31;;;12.75;74.04
6565;BME280;3316;44.118;27.258;2023-02-18T11:45:30;101122.22;;;12.77;73.70
6565;BME280;3316;44.118;27.258;2023-02-18T11:48:22;101109.84;;;12.83;73.30
6565;BME280;3316;44.118;27.258;2023-02-18T11:50:52;101060.72;;;12.67;72.92
6565;BME280;3316;44.118;27.258;2023-02-18T11:56:09;101087.66;;;12.96;72.63
6565;BME280;3316;44.118;27.258;2023-02-18T11:58:43;101098.09;;;13.07;71.87
6565;BME280;3316;44.118;27.258;2023-02-18T12:03:57;101084.94;;;12.99;71.53
6565;BME280;3316;44.118;27.258;2023-02-18T12:06:32;101083.97;;;13.12;70.77
6565;BME280;3316;44.118;27.258;2023-02-18T12:11:48;101072.59;;;13.06;71.16
6565;BME280;3316;44.118;27.258;2023-02-18T12:14:19;101070.00;;;13.00;71.38
6565;BME280;3316;44.118;27.258;2023-02-18T12:22:16;101083.09;;;13.09;71.86
6565;BME280;3316;44.118;27.258;2023-02-18T12:35:42;101089.88;;;13.29;71.04
6565;BME280;3316;44.118;27.258;2023-02-18T12:46:59;101074.00;;;13.29;72.53
6565;BME280;3316;44.118;27.258;2023-02-18T12:50:13;101064.31;;;13.28;72.02
6565;BME280;3316;44.118;27.258;2023-02-18T12:55:56;101059.03;;;13.30;72.27
6565;BME280;3316;44.118;27.258;2023-02-18T12:58:45;101057.25;;;13.32;73.11
6565;BME280;3316;44.118;27.258;2023-02-18T13:01:23;101052.94;;;13.25;73.97
6565;BME280;3316;44.118;27.258;2023-02-18T13:14:42;101031.75;;;13.28;73.66
6565;BME280;3316;44.118;27.258;2023-02-18T13:17:10;101036.16;;;13.27;74.58
6565;BME280;3316;44.118;27.258;2023-02-18T13:22:09;101022.16;;;13.21;75.44
6565;BME280;3316;44.118;27.258;2023-02-18T13:24:44;101028.31;;;13.21;75.66
6565;BME280;3316;44.118;27.258;2023-02-18T13:27:30;101038.91;;;13.21;75.96
6565;BME280;3316;44.118;27.258;2023-02-18T13:33:13;101032.81;;;13.16;76.97
6565;BME280;3316;44.118;27.258;2023-02-18T13:35:54;101034.56;;;13.17;76.65
6565;BME280;3316;44.118;27.258;2023-02-18T13:41:10;101033.75;;;13.12;77.61
6565;BME280;3316;44.118;27.258;2023-02-18T13:43:35;101025.81;;;13.11;77.21
6565;BME280;3316;44.118;27.258;2023-02-18T13:46:20;101026.75;;;13.07;78.25
6565;BME280;3316;44.118;27.258;2023-02-18T13:49:04;101024.13;;;13.07;78.15
6565;BME280;3316;44.118;27.258;2023-02-18T14:02:30;101010.19;;;12.94;82.09
6565;BME280;3316;44.118;27.258;2023-02-18T14:05:14;101007.78;;;12.78;82.82
6565;BME280;3316;44.118;27.258;2023-02-18T14:10:34;101000.72;;;12.81;82.91
6565;BME280;3316;44.118;27.258;2023-02-18T14:13:18;100993.56;;;12.88;83.60
6565;BME280;3316;44.118;27.258;2023-02-18T14:15:49;101002.31;;;12.91;83.76
6565;BME280;3316;44.118;27.258;2023-02-18T14:18:23;101012.00;;;12.91;84.31
6565;BME280;3316;44.118;27.258;2023-02-18T14:20:49;101003.25;;;12.89;85.19
6565;BME280;3316;44.118;27.258;2023-02-18T14:25:56;101012.00;;;12.89;85.44
6565;BME280;3316;44.118;27.258;2023-02-18T14:31:01;100979.75;;;12.69;87.24
6565;BME280;3316;44.118;27.258;2023-02-18T14:33:29;101020.00;;;12.86;87.81
6565;BME280;3316;44.118;27.258;2023-02-18T14:49:53;101015.59;;;12.87;90.26
6565;BME280;3316;44.118;27.258;2023-02-18T14:52:33;101005.13;;;12.78;91.36
6565;BME280;3316;44.118;27.258;2023-02-18T14:55:02;101005.91;;;12.86;91.63
6565;BME280;3316;44.118;27.258;2023-02-18T15:00:15;101007.69;;;12.85;92.54
6565;BME280;3316;44.118;27.258;2023-02-18T15:02:41;101009.47;;;12.85;92.60
6565;BME280;3316;44.118;27.258;2023-02-18T15:05:13;100983.16;;;12.77;93.61
6565;BME280;3316;44.118;27.258;2023-02-18T15:07:39;101000.66;;;12.84;93.95
6565;BME280;3316;44.118;27.258;2023-02-18T15:10:12;100991.78;;;12.88;95.25
6565;BME280;3316;44.118;27.258;2023-02-18T15:12:38;100979.38;;;12.93;95.24
6565;BME280;3316;44.118;27.258;2023-02-18T15:15:04;100978.63;;;12.87;95.75
6565;BME280;3316;44.118;27.258;2023-02-18T15:17:30;100973.28;;;12.90;96.71
6565;BME280;3316;44.118;27.258;2023-02-18T15:19:58;100968.84;;;12.92;96.41
6565;BME280;3316;44.118;27.258;2023-02-18T15:22:31;100965.34;;;12.90;96.81
6565;BME280;3316;44.118;27.258;2023-02-18T15:24:58;100929.59;;;12.68;97.05
6565;BME280;3316;44.118;27.258;2023-02-18T15:27:28;100971.50;;;12.92;97.66
6565;BME280;3316;44.118;27.258;2023-02-18T15:32:30;100968.97;;;12.84;98.51
6565;BME280;3316;44.118;27.258;2023-02-18T15:35:01;100962.78;;;12.87;99.52
6565;BME280;3316;44.118;27.258;2023-02-18T15:37:29;100946.25;;;12.73;100.00
6565;BME280;3316;44.118;27.258;2023-02-18T15:39:54;100969.84;;;12.85;99.72
6565;BME280;3316;44.118;27.258;2023-02-18T15:42:29;100971.56;;;12.87;100.00
6565;BME280;3316;44.118;27.258;2023-02-18T15:47:46;100966.19;;;12.93;100.00
6565;BME280;3316;44.118;27.258;2023-02-18T15:50:19;100949.59;;;12.85;100.00
6565;BME280;3316;44.118;27.258;2023-02-18T15:52:45;100966.19;;;12.93;100.00
6565;BME280;3316;44.118;27.258;2023-02-18T15:55:18;100939.13;;;12.79;100.00